createdAt,value
2022-10-05T00:00:00.134Z,92811.34
2022-10-05T00:02:27.129Z,92812.69
2022-10-05T00:04:57.020Z,92812.69
2022-10-05T00:07:24.695Z,92816.19
2022-10-05T00:09:58.703Z,92812.69
2022-10-05T00:12:27.014Z,92816.03
2022-10-05T00:14:57.965Z,92815.28
2022-10-05T00:17:27.360Z,92822.34
2022-10-05T00:19:54.175Z,92823.66
2022-10-05T00:22:29.897Z,92822.34
2022-10-05T00:24:58.925Z,92818.81
2022-10-05T00:27:37.515Z,92826.44
2022-10-05T00:30:19.712Z,92832.00
2022-10-05T00:32:47.119Z,92824.94
2022-10-05T00:35:15.641Z,92820.88
2022-10-05T00:37:42.245Z,92824.94
2022-10-05T00:40:41.725Z,92834.06
2022-10-05T00:43:40.161Z,92824.41
2022-10-05T00:46:16.059Z,92822.16
2022-10-05T00:48:55.376Z,92829.81
2022-10-05T00:51:28.388Z,92829.81
2022-10-05T00:53:54.774Z,92821.44
2022-10-05T00:56:36.157Z,92830.53
2022-10-05T00:59:08.633Z,92817.91
2022-10-05T01:01:48.472Z,92817.91
2022-10-05T01:04:54.104Z,92819.38
2022-10-05T01:07:30.394Z,92812.34
2022-10-05T01:10:11.632Z,92814.38
2022-10-05T01:13:19.272Z,92813.63
2022-10-05T01:15:55.569Z,92811.59
2022-10-05T01:18:39.981Z,92813.09
2022-10-05T01:21:11.774Z,92806.78
2022-10-05T01:23:41.443Z,92801.19
2022-10-05T01:26:16.179Z,92801.19
2022-10-05T01:28:52.386Z,92806.03
2022-10-05T01:31:37.742Z,92794.13
2022-10-05T01:34:16.908Z,92799.72
2022-10-05T01:37:03.936Z,92801.03
2022-10-05T01:39:39.121Z,92797.50
2022-10-05T01:42:29.893Z,92791.94
2022-10-05T01:45:31.602Z,92797.50
2022-10-05T01:48:00.933Z,92791.22
2022-10-05T01:50:59.301Z,92787.09
2022-10-05T01:54:06.762Z,92791.22
2022-10-05T01:56:43.514Z,92789.72
2022-10-05T01:59:19.318Z,92785.66
2022-10-05T02:02:02.004Z,92789.72
2022-10-05T02:05:00.926Z,92791.94
2022-10-05T02:07:28.953Z,92788.44
2022-10-05T02:10:00.709Z,92789.72
2022-10-05T02:12:31.433Z,92791.22
2022-10-05T02:15:08.121Z,92789.72
2022-10-05T02:17:47.393Z,92796.03
2022-10-05T02:20:22.515Z,92794.56
2022-10-05T02:22:55.947Z,92793.84
2022-10-05T02:25:27.882Z,92788.25
2022-10-05T02:28:24.965Z,92782.69
2022-10-05T02:30:56.780Z,92788.25
2022-10-05T02:33:28.944Z,92785.47
2022-10-05T02:36:00.268Z,92785.47
2022-10-05T02:38:39.021Z,92788.25
2022-10-05T02:41:26.719Z,92779.91
2022-10-05T02:44:04.918Z,92777.13
2022-10-05T02:47:10.161Z,92777.13
2022-10-05T02:49:47.866Z,92781.19
2022-10-05T02:52:33.740Z,92779.91
2022-10-05T02:55:17.885Z,92776.38
2022-10-05T02:57:59.886Z,92778.41
2022-10-05T03:00:32.232Z,92775.63
2022-10-05T03:03:23.877Z,92775.63
2022-10-05T03:06:15.073Z,92774.16
2022-10-05T03:08:47.138Z,92774.16
2022-10-05T03:11:30.728Z,92770.63
2022-10-05T03:14:03.296Z,92767.09
2022-10-05T03:16:51.612Z,92768.59
2022-10-05T03:19:55.000Z,92771.38
2022-10-05T03:23:03.549Z,92785.31
2022-10-05T03:25:48.169Z,92785.31
2022-10-05T03:28:23.663Z,92782.53
2022-10-05T03:31:02.987Z,92772.69
2022-10-05T03:33:40.697Z,92762.28
2022-10-05T03:36:25.152Z,92759.50
2022-10-05T03:39:25.415Z,92768.59
2022-10-05T03:41:57.724Z,92763.03
2022-10-05T03:44:40.973Z,92761.53
2022-10-05T03:47:10.409Z,92765.06
2022-10-05T03:50:16.136Z,92757.47
2022-10-05T03:52:54.816Z,92761.53
2022-10-05T03:55:36.077Z,92759.50
2022-10-05T03:58:10.570Z,92762.28
2022-10-05T04:00:39.017Z,92758.91
2022-10-05T04:03:15.729Z,92768.59
2022-10-05T04:05:48.815Z,92771.38
2022-10-05T04:08:20.973Z,92765.81
2022-10-05T04:10:56.047Z,92770.06
2022-10-05T04:13:36.708Z,92771.38
2022-10-05T04:16:23.869Z,92767.09
2022-10-05T04:19:01.377Z,92769.19
2022-10-05T04:21:36.107Z,92772.69
2022-10-05T04:24:11.513Z,92767.09
2022-10-05T04:26:49.711Z,92778.25
2022-10-05T04:29:29.220Z,92772.69
2022-10-05T04:32:16.140Z,92779.00
2022-10-05T04:35:10.366Z,92778.25
2022-10-05T04:37:53.613Z,92779.56
2022-10-05T04:40:35.464Z,92779.56
2022-10-05T04:43:13.412Z,92792.19
2022-10-05T04:46:08.190Z,92787.94
2022-10-05T04:48:46.612Z,92786.59
2022-10-05T04:51:16.016Z,92783.09
2022-10-05T04:53:58.657Z,92789.41
2022-10-05T04:56:25.056Z,92789.41
2022-10-05T04:59:29.109Z,92786.59
2022-10-05T05:02:11.360Z,92790.13
2022-10-05T05:04:51.982Z,92793.84
2022-10-05T05:07:39.781Z,92796.94
2022-10-05T05:10:24.480Z,92804.00
2022-10-05T05:13:20.652Z,92803.81
2022-10-05T05:16:00.920Z,92805.28
2022-10-05T05:18:46.721Z,92797.50
2022-10-05T05:21:28.571Z,92794.00
2022-10-05T05:24:02.656Z,92795.31
2022-10-05T05:27:10.624Z,92800.88
2022-10-05T05:30:02.662Z,92804.97
2022-10-05T05:33:00.040Z,92797.91
2022-10-05T05:35:45.174Z,92797.19
2022-10-05T05:38:26.953Z,92801.28
2022-10-05T05:41:03.205Z,92796.47
2022-10-05T05:43:38.055Z,92789.41
2022-10-05T05:46:13.709Z,92790.13
2022-10-05T05:48:43.656Z,92796.47
2022-10-05T05:51:16.267Z,92796.47
2022-10-05T05:53:45.788Z,92794.97
2022-10-05T05:56:14.853Z,92794.97
2022-10-05T05:58:52.222Z,92801.28
2022-10-05T06:01:42.034Z,92803.31
2022-10-05T06:04:15.914Z,92800.53
2022-10-05T06:06:50.888Z,92800.53
2022-10-05T06:10:02.770Z,92804.66
2022-10-05T06:12:34.554Z,92810.22
2022-10-05T06:15:13.864Z,92817.25
2022-10-05T06:17:52.753Z,92820.03
2022-10-05T06:20:36.948Z,92813.00
2022-10-05T06:23:14.125Z,92820.63
2022-10-05T06:26:10.515Z,92818.56
2022-10-05T06:28:37.163Z,92819.91
2022-10-05T06:31:09.485Z,92821.34
2022-10-05T06:33:51.716Z,92819.91
2022-10-05T06:36:18.134Z,92825.47
2022-10-05T06:39:16.927Z,92824.72
2022-10-05T06:41:52.072Z,92823.41
2022-10-05T06:44:47.649Z,92819.91
2022-10-05T06:47:26.213Z,92822.09
2022-10-05T06:50:07.589Z,92825.47
2022-10-05T06:52:48.863Z,92819.91
2022-10-05T06:55:30.431Z,92824.72
2022-10-05T06:58:21.764Z,92825.47
2022-10-05T07:00:58.426Z,92818.56
2022-10-05T07:03:55.088Z,92814.31
2022-10-05T07:06:34.189Z,92825.47
2022-10-05T07:09:00.604Z,92825.47
2022-10-05T07:11:51.493Z,92820.63
2022-10-05T07:14:54.557Z,92823.97
2022-10-05T07:17:42.561Z,92819.16
2022-10-05T07:20:30.836Z,92812.84
2022-10-05T07:23:11.816Z,92815.63
2022-10-05T07:25:52.357Z,92808.59
2022-10-05T07:28:28.501Z,92816.94
2022-10-05T07:31:03.839Z,92805.81
2022-10-05T07:33:33.363Z,92807.84
2022-10-05T07:36:24.550Z,92805.06
2022-10-05T07:39:04.792Z,92798.75
2022-10-05T07:41:44.886Z,92804.31
2022-10-05T07:44:23.337Z,92804.31
2022-10-05T07:47:10.746Z,92804.31
2022-10-05T07:50:04.110Z,92798.75
2022-10-05T07:52:42.162Z,92800.22
2022-10-05T07:55:26.904Z,92800.22
2022-10-05T07:58:13.090Z,92798.03
2022-10-05T08:00:49.964Z,92787.59
2022-10-05T08:03:22.828Z,92798.75
2022-10-05T08:05:49.381Z,92793.16
2022-10-05T08:08:23.720Z,92787.59
2022-10-05T08:11:02.970Z,92787.59
2022-10-05T08:13:38.101Z,92776.47
2022-10-05T08:16:14.436Z,92782.78
2022-10-05T08:19:17.520Z,92771.63
2022-10-05T08:22:04.136Z,92770.88
2022-10-05T08:24:59.348Z,92761.22
2022-10-05T08:27:36.047Z,92765.31
2022-10-05T08:30:13.093Z,92751.38
2022-10-05T08:32:50.396Z,92762.53
2022-10-05T08:35:51.705Z,92747.88
2022-10-05T08:38:24.264Z,92754.19
2022-10-05T08:41:23.297Z,92746.56
2022-10-05T08:44:27.837Z,92747.31
2022-10-05T08:47:09.017Z,92733.38
2022-10-05T08:49:38.081Z,92733.38
2022-10-05T08:52:16.669Z,92735.41
2022-10-05T08:55:00.862Z,92729.09
2022-10-05T08:57:33.089Z,92727.81
2022-10-05T09:00:12.983Z,92715.19
2022-10-05T09:03:22.070Z,92708.16
2022-10-05T09:06:14.535Z,92709.59
2022-10-05T09:09:08.816Z,92702.56
2022-10-05T09:11:39.477Z,92703.31
2022-10-05T09:14:14.351Z,92697.00
2022-10-05T09:16:59.499Z,92699.78
2022-10-05T09:19:34.602Z,92694.97
2022-10-05T09:22:15.071Z,92691.44
2022-10-05T09:25:03.837Z,92687.31
2022-10-05T09:27:36.905Z,92681.75
2022-10-05T09:30:22.560Z,92673.41
2022-10-05T09:33:00.772Z,92674.16
2022-10-05T09:35:48.693Z,92668.00
2022-10-05T09:38:40.580Z,92660.97
2022-10-05T09:41:10.231Z,92653.91
2022-10-05T09:43:45.353Z,92653.19
2022-10-05T09:46:44.870Z,92647.63
2022-10-05T09:49:38.500Z,92643.50
2022-10-05T09:52:19.175Z,92638.69
2022-10-05T09:55:05.493Z,92631.63
2022-10-05T09:57:32.037Z,92619.03
2022-10-05T10:00:36.068Z,92626.03
2022-10-05T10:03:27.397Z,92616.41
2022-10-05T10:06:24.342Z,92610.81
2022-10-05T10:09:21.557Z,92599.69
2022-10-05T10:12:26.918Z,92592.63
2022-10-05T10:15:32.077Z,92598.19
2022-10-05T10:18:22.717Z,92592.63
2022-10-05T10:21:07.811Z,92588.53
2022-10-05T10:23:37.340Z,92577.41
2022-10-05T10:26:25.255Z,92581.47
2022-10-05T10:29:10.196Z,92564.78
2022-10-05T10:31:55.941Z,92570.34
2022-10-05T10:34:46.761Z,92559.19
2022-10-05T10:37:47.485Z,92563.47
2022-10-05T10:40:46.417Z,92557.91
2022-10-05T10:43:43.556Z,92557.91
2022-10-05T10:46:12.659Z,92545.28
2022-10-05T10:48:54.530Z,92550.84
2022-10-05T10:51:39.478Z,92548.06
2022-10-05T10:54:54.022Z,92549.53
2022-10-05T10:57:44.034Z,92538.41
2022-10-05T11:00:36.731Z,92534.28
2022-10-05T11:03:33.133Z,92527.25
2022-10-05T11:06:30.270Z,92527.25
2022-10-05T11:09:40.904Z,92515.38
2022-10-05T11:12:20.565Z,92509.81
2022-10-05T11:14:49.843Z,92512.00
2022-10-05T11:18:00.172Z,92505.13
2022-10-05T11:20:32.372Z,92496.78
2022-10-05T11:23:38.923Z,92485.63
2022-10-05T11:26:17.616Z,92481.53
2022-10-05T11:29:02.543Z,92470.38
2022-10-05T11:31:44.108Z,92470.38
2022-10-05T11:34:32.426Z,92460.69
2022-10-05T11:37:16.906Z,92467.75
2022-10-05T11:39:55.412Z,92453.97
2022-10-05T11:42:40.008Z,92455.75
2022-10-05T11:45:24.352Z,92449.16
2022-10-05T11:48:17.935Z,92439.63
2022-10-05T11:51:27.829Z,92435.84
2022-10-05T11:54:06.977Z,92422.03
2022-10-05T11:56:42.531Z,92420.13
2022-10-05T11:59:19.396Z,92422.34
2022-10-05T12:01:55.895Z,92411.19
2022-10-05T12:04:31.123Z,92416.19
2022-10-05T12:07:55.809Z,92408.56
2022-10-05T12:10:24.981Z,92405.94
2022-10-05T12:13:13.237Z,92409.47
2022-10-05T12:16:07.229Z,92397.75
2022-10-05T12:18:34.194Z,92396.41
2022-10-05T12:21:00.686Z,92389.53
2022-10-05T12:23:48.964Z,92390.97
2022-10-05T12:26:24.493Z,92385.56
2022-10-05T12:28:55.900Z,92384.22
2022-10-05T12:31:43.269Z,92380.88
2022-10-05T12:34:26.637Z,92383.06
2022-10-05T12:37:09.297Z,92377.50
2022-10-05T12:39:53.610Z,92377.66
2022-10-05T12:42:30.424Z,92369.28
2022-10-05T12:45:27.175Z,92369.28
2022-10-05T12:48:18.779Z,92365.16
2022-10-05T12:51:00.634Z,92359.59
2022-10-05T12:53:51.054Z,92355.47
2022-10-05T12:56:38.195Z,92352.13
2022-10-05T12:59:19.364Z,92356.94
2022-10-05T13:02:11.743Z,92358.41
2022-10-05T13:05:00.382Z,92343.16
2022-10-05T13:07:26.777Z,92356.50
2022-10-05T13:10:14.872Z,92349.47
2022-10-05T13:13:03.140Z,92355.75
2022-10-05T13:15:48.962Z,92350.94
2022-10-05T13:18:29.770Z,92346.09
2022-10-05T13:21:04.500Z,92350.34
2022-10-05T13:24:13.945Z,92347.56
2022-10-05T13:26:53.592Z,92358.69
2022-10-05T13:29:28.186Z,92349.03
2022-10-05T13:32:00.401Z,92355.31
2022-10-05T13:34:26.819Z,92351.22
2022-10-05T13:37:11.634Z,92351.94
2022-10-05T13:39:44.181Z,92351.94
2022-10-05T13:42:43.957Z,92356.22
2022-10-05T13:45:15.764Z,92360.44
2022-10-05T13:48:21.047Z,92355.63
2022-10-05T13:51:07.424Z,92347.25
2022-10-05T13:53:39.625Z,92339.63
2022-10-05T13:56:16.716Z,92345.19
2022-10-05T13:58:56.457Z,92345.19
2022-10-05T14:01:34.729Z,92346.66
2022-10-05T14:04:04.188Z,92349.44
2022-10-05T14:06:32.701Z,92349.44
2022-10-05T14:08:59.918Z,92351.63
2022-10-05T14:11:34.870Z,92352.22
2022-10-05T14:14:10.139Z,92349.59
2022-10-05T14:16:49.593Z,92348.25
2022-10-05T14:19:18.712Z,92349.59
2022-10-05T14:21:55.117Z,92342.69
2022-10-05T14:24:45.154Z,92348.25
2022-10-05T14:27:21.194Z,92352.53
2022-10-05T14:29:56.481Z,92351.03
2022-10-05T14:32:25.133Z,92349.75
2022-10-05T14:34:57.410Z,92346.94
2022-10-05T14:37:26.200Z,92346.22
2022-10-05T14:39:57.616Z,92347.69
2022-10-05T14:42:27.050Z,92345.63
2022-10-05T14:45:11.589Z,92342.81
2022-10-05T14:47:49.106Z,92347.09
2022-10-05T14:50:17.892Z,92344.31
2022-10-05T14:53:14.059Z,92344.31
2022-10-05T14:55:43.745Z,92345.75
2022-10-05T14:58:32.037Z,92349.88
2022-10-05T15:01:13.622Z,92346.94
2022-10-05T15:04:16.722Z,92344.75
2022-10-05T15:06:55.518Z,92345.47
2022-10-05T15:09:49.802Z,92351.78
2022-10-05T15:12:29.283Z,92359.56
2022-10-05T15:15:02.924Z,92356.78
2022-10-05T15:18:05.712Z,92361.03
2022-10-05T15:20:46.287Z,92365.28
2022-10-05T15:23:24.905Z,92368.81
2022-10-05T15:26:07.798Z,92358.41
2022-10-05T15:28:49.745Z,92375.13
2022-10-05T15:31:40.482Z,92369.56
2022-10-05T15:34:16.324Z,92375.13
2022-10-05T15:36:45.277Z,92373.06
2022-10-05T15:39:43.972Z,92375.13
2022-10-05T15:42:14.666Z,92375.13
2022-10-05T15:44:59.805Z,92381.41
2022-10-05T15:47:46.065Z,92387.75
2022-10-05T15:50:32.424Z,92389.06
2022-10-05T15:53:19.843Z,92398.16
2022-10-05T15:55:56.484Z,92405.22
2022-10-05T15:58:43.332Z,92407.25
2022-10-05T16:01:18.711Z,92409.31
2022-10-05T16:03:50.528Z,92413.56
2022-10-05T16:06:56.849Z,92421.19
2022-10-05T16:09:35.874Z,92421.19
2022-10-05T16:12:29.084Z,92430.16
2022-10-05T16:15:17.667Z,92422.38
2022-10-05T16:18:03.008Z,92434.84
2022-10-05T16:20:45.800Z,92443.22
2022-10-05T16:23:40.229Z,92447.31
2022-10-05T16:26:15.334Z,92459.94
2022-10-05T16:28:59.558Z,92465.50
2022-10-05T16:31:47.823Z,92469.63
2022-10-05T16:34:24.439Z,92473.72
2022-10-05T16:37:05.821Z,92477.84
2022-10-05T16:39:52.702Z,92481.97
2022-10-05T16:42:29.607Z,92488.25
2022-10-05T16:45:17.736Z,92487.53
2022-10-05T16:47:56.424Z,92494.56
2022-10-05T16:50:44.678Z,92500.16
2022-10-05T16:53:19.376Z,92507.94
2022-10-05T16:55:50.264Z,92518.34
2022-10-05T16:58:31.688Z,92525.25
2022-10-05T17:01:20.211Z,92532.16
2022-10-05T17:04:39.085Z,92537.72
2022-10-05T17:07:13.851Z,92546.66
2022-10-05T17:09:55.883Z,92561.19
2022-10-05T17:12:31.574Z,92559.72
2022-10-05T17:15:30.320Z,92561.78
2022-10-05T17:18:16.626Z,92569.41
2022-10-05T17:20:50.707Z,92577.03
2022-10-05T17:23:18.327Z,92581.72
2022-10-05T17:26:22.444Z,92591.41
2022-10-05T17:28:51.971Z,92596.84
2022-10-05T17:31:21.720Z,92603.72
2022-10-05T17:33:54.684Z,92614.16
2022-10-05T17:36:21.419Z,92617.50
2022-10-05T17:38:51.077Z,92623.06
2022-10-05T17:41:28.673Z,92625.72
2022-10-05T17:44:13.673Z,92625.72
2022-10-05T17:46:47.983Z,92629.81
2022-10-05T17:49:17.289Z,92640.97
2022-10-05T17:52:02.317Z,92637.31
2022-10-05T17:54:49.563Z,92649.16
2022-10-05T17:57:21.135Z,92651.25
2022-10-05T17:59:56.903Z,92658.88
2022-10-05T18:02:39.087Z,92662.22
2022-10-05T18:05:17.611Z,92670.59
2022-10-05T18:07:49.705Z,92672.63
2022-10-05T18:10:29.033Z,92682.31
2022-10-05T18:13:01.417Z,92683.78
2022-10-05T18:15:27.881Z,92683.78
2022-10-05T18:17:57.184Z,92685.13
2022-10-05T18:20:26.686Z,92697.56
2022-10-05T18:23:14.442Z,92696.81
2022-10-05T18:26:01.330Z,92702.41
2022-10-05T18:28:36.259Z,92705.75
2022-10-05T18:31:09.688Z,92710.03
2022-10-05T18:34:15.089Z,92710.63
2022-10-05T18:37:00.718Z,92711.34
2022-10-05T18:39:30.258Z,92725.28
2022-10-05T18:42:27.206Z,92715.44
2022-10-05T18:44:59.159Z,92725.13
2022-10-05T18:47:34.853Z,92734.81
2022-10-05T18:50:21.476Z,92723.66
2022-10-05T18:52:53.685Z,92734.06
2022-10-05T18:55:33.162Z,92727.75
2022-10-05T18:58:10.868Z,92737.44
2022-10-05T19:00:46.374Z,92729.06
2022-10-05T19:03:46.437Z,92737.44
2022-10-05T19:06:33.494Z,92740.22
2022-10-05T19:09:22.784Z,92743.00
2022-10-05T19:12:05.255Z,92749.31
2022-10-05T19:14:44.105Z,92747.81
2022-10-05T19:17:40.432Z,92753.41
2022-10-05T19:20:20.928Z,92751.91
2022-10-05T19:23:15.264Z,92753.97
2022-10-05T19:25:53.004Z,92761.22
2022-10-05T19:28:41.061Z,92765.28
2022-10-05T19:31:13.439Z,92770.88
2022-10-05T19:34:01.573Z,92772.19
2022-10-05T19:36:37.032Z,92779.78
2022-10-05T19:39:21.417Z,92779.03
2022-10-05T19:41:59.833Z,92784.63
2022-10-05T19:44:36.380Z,92779.03
2022-10-05T19:47:18.779Z,92788.72
2022-10-05T19:49:56.955Z,92792.81
2022-10-05T19:52:36.345Z,92799.88
2022-10-05T19:55:15.298Z,92805.44
2022-10-05T19:57:50.969Z,92802.50
2022-10-05T20:00:31.347Z,92810.69
2022-10-05T20:03:29.189Z,92817.72
2022-10-05T20:06:03.288Z,92811.03
2022-10-05T20:08:47.468Z,92819.56
2022-10-05T20:11:16.496Z,92814.00
2022-10-05T20:14:09.450Z,92819.56
2022-10-05T20:16:54.810Z,92818.81
2022-10-05T20:19:47.440Z,92820.84
2022-10-05T20:22:39.599Z,92827.94
2022-10-05T20:25:18.002Z,92827.16
2022-10-05T20:27:50.137Z,92833.31
2022-10-05T20:30:20.810Z,92832.00
2022-10-05T20:32:52.404Z,92833.31
2022-10-05T20:35:22.986Z,92833.31
2022-10-05T20:37:52.311Z,92840.19
2022-10-05T20:40:20.313Z,92843.72
2022-10-05T20:42:47.964Z,92847.09
2022-10-05T20:45:14.677Z,92854.13
2022-10-05T20:47:42.156Z,92842.97
2022-10-05T20:50:09.685Z,92859.69
2022-10-05T20:52:37.424Z,92859.69
2022-10-05T20:55:09.891Z,92858.22
2022-10-05T20:57:42.252Z,92862.31
2022-10-05T21:00:10.550Z,92873.47
2022-10-05T21:02:38.718Z,92879.03
2022-10-05T21:05:05.945Z,92881.81
2022-10-05T21:07:34.240Z,92884.59
2022-10-05T21:10:02.326Z,92885.94
2022-10-05T21:12:29.042Z,92888.72
2022-10-05T21:14:55.545Z,92888.72
2022-10-05T21:17:21.981Z,92897.06
2022-10-05T21:19:48.477Z,92898.41
2022-10-05T21:22:14.928Z,92896.34
2022-10-05T21:24:41.440Z,92888.72
2022-10-05T21:27:08.610Z,92893.53
2022-10-05T21:29:36.493Z,92898.41
2022-10-05T21:32:08.314Z,92905.44
2022-10-05T21:34:35.137Z,92903.97
2022-10-05T21:37:01.669Z,92915.13
2022-10-05T21:39:28.168Z,92909.53
2022-10-05T21:41:54.700Z,92910.25
2022-10-05T21:44:21.141Z,92913.63
2022-10-05T21:46:48.448Z,92909.53
2022-10-05T21:49:17.511Z,92915.13
2022-10-05T21:51:46.444Z,92914.94
2022-10-05T21:54:17.492Z,92914.94
2022-10-05T21:56:48.324Z,92924.78
2022-10-05T21:59:18.799Z,92930.34
2022-10-05T22:01:45.942Z,92933.13
2022-10-05T22:04:12.413Z,92934.47
2022-10-05T22:06:38.909Z,92932.97
2022-10-05T22:09:05.397Z,92940.03
2022-10-05T22:11:32.933Z,92933.72
2022-10-05T22:14:02.735Z,92951.91
2022-10-05T22:16:35.275Z,92951.19
2022-10-05T22:19:07.218Z,92951.19
2022-10-05T22:21:41.434Z,92955.25
2022-10-05T22:24:09.966Z,92960.84
2022-10-05T22:26:36.592Z,92956.00
2022-10-05T22:29:03.834Z,92966.41
2022-10-05T22:31:30.568Z,92970.50
2022-10-05T22:33:57.123Z,92964.94
2022-10-05T22:36:23.794Z,92963.63
2022-10-05T22:38:50.261Z,92966.41
2022-10-05T22:41:18.503Z,92970.50
2022-10-05T22:43:48.750Z,92967.72
2022-10-05T22:46:15.358Z,92971.25
2022-10-05T22:48:41.933Z,92969.78
2022-10-05T22:51:08.867Z,92974.59
2022-10-05T22:53:35.581Z,92980.16
2022-10-05T22:56:10.665Z,92980.91
2022-10-05T22:58:37.371Z,92980.91
2022-10-05T23:01:06.039Z,92987.25
2022-10-05T23:03:33.595Z,92985.75
2022-10-05T23:06:05.300Z,92989.28
2022-10-05T23:08:33.255Z,92985.75
2022-10-05T23:11:03.782Z,92997.63
2022-10-05T23:13:30.718Z,92989.84
2022-10-05T23:15:57.543Z,92995.44
2022-10-05T23:18:24.300Z,93001.00
2022-10-05T23:20:55.285Z,93000.25
2022-10-05T23:23:23.065Z,92998.22
2022-10-05T23:25:50.237Z,93003.78
2022-10-05T23:28:16.873Z,93005.09
2022-10-05T23:30:43.593Z,93012.16
2022-10-05T23:33:10.114Z,93005.81
2022-10-05T23:35:36.569Z,93007.88
2022-10-05T23:38:03.298Z,93009.94
2022-10-05T23:40:29.773Z,93013.47
2022-10-05T23:42:56.426Z,93014.19
2022-10-05T23:45:22.873Z,93020.31
2022-10-05T23:47:49.356Z,93021.06
2022-10-05T23:50:16.618Z,93021.81
2022-10-05T23:52:43.129Z,93020.31
2022-10-05T23:55:09.955Z,93014.00
2022-10-05T23:57:36.479Z,93026.66
